sensor_id;sensor_type;location;lat;lon;timestamp;temperature;humidity
8778;DHT22;4425;50.872;4.712;2022-09-13T00:01:23;18.20;99.90
8778;DHT22;4425;50.872;4.712;2022-09-13T00:03:56;18.20;99.90
8778;DHT22;4425;50.872;4.712;2022-09-13T00:06:26;18.20;99.90
8778;DHT22;4425;50.872;4.712;2022-09-13T00:08:53;18.20;99.90
8778;DHT22;4425;50.872;4.712;2022-09-13T00:11:24;18.20;99.90
8778;DHT22;4425;50.872;4.712;2022-09-13T00:14:01;18.10;99.90
8778;DHT22;4425;50.872;4.712;2022-09-13T00:16:30;18.10;99.90
8778;DHT22;4425;50.872;4.712;2022-09-13T00:18:59;18.10;99.90
8778;DHT22;4425;50.872;4.712;2022-09-13T00:21:27;18.10;99.90
8778;DHT22;4425;50.872;4.712;2022-09-13T00:23:55;18.00;99.90
8778;DHT22;4425;50.872;4.712;2022-09-13T00:26:26;18.00;99.90
8778;DHT22;4425;50.872;4.712;2022-09-13T00:28:56;18.00;99.90
8778;DHT22;4425;50.872;4.712;2022-09-13T00:31:24;18.00;99.90
8778;DHT22;4425;50.872;4.712;2022-09-13T00:33:53;18.00;99.90
8778;DHT22;4425;50.872;4.712;2022-09-13T00:36:24;18.00;99.90
8778;DHT22;4425;50.872;4.712;2022-09-13T00:38:52;18.00;99.90
8778;DHT22;4425;50.872;4.712;2022-09-13T00:41:20;18.10;99.90
8778;DHT22;4425;50.872;4.712;2022-09-13T00:43:50;18.10;99.90
8778;DHT22;4425;50.872;4.712;2022-09-13T00:46:24;18.10;99.90
8778;DHT22;4425;50.872;4.712;2022-09-13T00:49:00;18.10;99.90
8778;DHT22;4425;50.872;4.712;2022-09-13T00:51:29;18.00;99.90
8778;DHT22;4425;50.872;4.712;2022-09-13T00:53:59;18.00;99.90
8778;DHT22;4425;50.872;4.712;2022-09-13T00:56:32;18.00;99.90
8778;DHT22;4425;50.872;4.712;2022-09-13T00:59:02;18.00;99.90
8778;DHT22;4425;50.872;4.712;2022-09-13T01:01:38;18.00;99.90
8778;DHT22;4425;50.872;4.712;2022-09-13T01:04:14;18.00;99.90
8778;DHT22;4425;50.872;4.712;2022-09-13T01:06:45;18.00;99.90
8778;DHT22;4425;50.872;4.712;2022-09-13T01:09:15;18.00;99.90
8778;DHT22;4425;50.872;4.712;2022-09-13T01:11:46;18.00;99.90
8778;DHT22;4425;50.872;4.712;2022-09-13T01:14:17;18.00;99.90
8778;DHT22;4425;50.872;4.712;2022-09-13T01:16:45;18.00;99.90
8778;DHT22;4425;50.872;4.712;2022-09-13T01:19:43;18.00;99.90
8778;DHT22;4425;50.872;4.712;2022-09-13T01:25:58;18.00;99.90
8778;DHT22;4425;50.872;4.712;2022-09-13T01:28:53;18.10;99.90
8778;DHT22;4425;50.872;4.712;2022-09-13T01:31:29;18.10;99.90
8778;DHT22;4425;50.872;4.712;2022-09-13T01:34:08;18.10;99.90
8778;DHT22;4425;50.872;4.712;2022-09-13T01:36:57;18.10;99.90
8778;DHT22;4425;50.872;4.712;2022-09-13T01:39:58;18.10;99.90
8778;DHT22;4425;50.872;4.712;2022-09-13T01:42:40;18.20;99.90
8778;DHT22;4425;50.872;4.712;2022-09-13T01:45:20;18.30;99.90
8778;DHT22;4425;50.872;4.712;2022-09-13T01:47:56;18.30;99.90
8778;DHT22;4425;50.872;4.712;2022-09-13T01:54:17;18.30;99.90
8778;DHT22;4425;50.872;4.712;2022-09-13T01:56:52;18.30;99.90
8778;DHT22;4425;50.872;4.712;2022-09-13T01:59:26;18.40;99.90
8778;DHT22;4425;50.872;4.712;2022-09-13T02:02:00;18.30;99.90
8778;DHT22;4425;50.872;4.712;2022-09-13T02:04:36;18.30;99.90
8778;DHT22;4425;50.872;4.712;2022-09-13T02:07:08;18.40;99.90
8778;DHT22;4425;50.872;4.712;2022-09-13T02:09:42;18.40;99.90
8778;DHT22;4425;50.872;4.712;2022-09-13T02:12:15;18.30;99.90
8778;DHT22;4425;50.872;4.712;2022-09-13T02:14:45;18.40;99.90
8778;DHT22;4425;50.872;4.712;2022-09-13T02:17:17;18.40;99.90
8778;DHT22;4425;50.872;4.712;2022-09-13T02:19:53;18.40;99.90
8778;DHT22;4425;50.872;4.712;2022-09-13T02:22:26;18.40;99.90
8778;DHT22;4425;50.872;4.712;2022-09-13T02:25:02;18.40;99.90
8778;DHT22;4425;50.872;4.712;2022-09-13T02:27:33;18.40;99.90
8778;DHT22;4425;50.872;4.712;2022-09-13T02:30:08;18.50;99.90
8778;DHT22;4425;50.872;4.712;2022-09-13T02:32:41;18.50;99.90
8778;DHT22;4425;50.872;4.712;2022-09-13T02:35:16;18.50;99.90
8778;DHT22;4425;50.872;4.712;2022-09-13T02:37:50;18.50;99.90
8778;DHT22;4425;50.872;4.712;2022-09-13T02:40:23;18.50;99.90
8778;DHT22;4425;50.872;4.712;2022-09-13T02:42:55;18.50;99.90
8778;DHT22;4425;50.872;4.712;2022-09-13T02:45:30;18.50;99.90
8778;DHT22;4425;50.872;4.712;2022-09-13T02:48:04;18.40;99.90
8778;DHT22;4425;50.872;4.712;2022-09-13T02:50:44;18.40;99.90
8778;DHT22;4425;50.872;4.712;2022-09-13T02:53:23;18.40;99.90
8778;DHT22;4425;50.872;4.712;2022-09-13T02:55:59;18.40;99.90
8778;DHT22;4425;50.872;4.712;2022-09-13T02:58:33;18.30;99.90
8778;DHT22;4425;50.872;4.712;2022-09-13T03:01:04;18.30;99.90
8778;DHT22;4425;50.872;4.712;2022-09-13T03:03:33;18.30;99.90
8778;DHT22;4425;50.872;4.712;2022-09-13T03:06:03;18.30;99.90
8778;DHT22;4425;50.872;4.712;2022-09-13T03:08:31;18.30;99.90
8778;DHT22;4425;50.872;4.712;2022-09-13T03:11:09;18.30;99.90
8778;DHT22;4425;50.872;4.712;2022-09-13T03:13:52;18.30;99.90
8778;DHT22;4425;50.872;4.712;2022-09-13T03:16:35;18.40;99.90
8778;DHT22;4425;50.872;4.712;2022-09-13T03:19:19;18.30;99.90
8778;DHT22;4425;50.872;4.712;2022-09-13T03:22:06;18.30;99.90
8778;DHT22;4425;50.872;4.712;2022-09-13T03:24:49;18.20;99.90
8778;DHT22;4425;50.872;4.712;2022-09-13T03:27:25;18.20;99.90
8778;DHT22;4425;50.872;4.712;2022-09-13T03:30:16;18.10;99.90
8778;DHT22;4425;50.872;4.712;2022-09-13T03:32:51;18.10;99.90
8778;DHT22;4425;50.872;4.712;2022-09-13T03:35:30;18.10;99.90
8778;DHT22;4425;50.872;4.712;2022-09-13T03:38:08;18.10;99.90
8778;DHT22;4425;50.872;4.712;2022-09-13T03:40:42;18.10;99.90
8778;DHT22;4425;50.872;4.712;2022-09-13T03:43:12;18.10;99.90
8778;DHT22;4425;50.872;4.712;2022-09-13T03:45:46;18.20;99.90
8778;DHT22;4425;50.872;4.712;2022-09-13T03:48:35;18.10;99.90
8778;DHT22;4425;50.872;4.712;2022-09-13T03:54:46;18.20;99.90
8778;DHT22;4425;50.872;4.712;2022-09-13T03:57:14;18.20;99.90
8778;DHT22;4425;50.872;4.712;2022-09-13T03:59:45;18.20;99.90
8778;DHT22;4425;50.872;4.712;2022-09-13T04:02:14;18.20;99.90
8778;DHT22;4425;50.872;4.712;2022-09-13T04:04:50;18.20;99.90
8778;DHT22;4425;50.872;4.712;2022-09-13T04:07:19;18.20;99.90
8778;DHT22;4425;50.872;4.712;2022-09-13T04:09:48;18.20;99.90
8778;DHT22;4425;50.872;4.712;2022-09-13T04:12:16;18.20;99.90
8778;DHT22;4425;50.872;4.712;2022-09-13T04:14:44;18.20;99.90
8778;DHT22;4425;50.872;4.712;2022-09-13T04:17:13;18.20;99.90
8778;DHT22;4425;50.872;4.712;2022-09-13T04:19:41;18.20;99.90
8778;DHT22;4425;50.872;4.712;2022-09-13T04:22:12;18.20;99.90
8778;DHT22;4425;50.872;4.712;2022-09-13T04:24:41;18.20;99.90
8778;DHT22;4425;50.872;4.712;2022-09-13T04:27:14;18.10;99.90
8778;DHT22;4425;50.872;4.712;2022-09-13T04:29:41;18.10;99.90
8778;DHT22;4425;50.872;4.712;2022-09-13T04:32:09;18.10;99.90
8778;DHT22;4425;50.872;4.712;2022-09-13T04:34:37;18.10;99.90
8778;DHT22;4425;50.872;4.712;2022-09-13T04:37:10;18.10;99.90
8778;DHT22;4425;50.872;4.712;2022-09-13T04:39:52;18.10;99.90
8778;DHT22;4425;50.872;4.712;2022-09-13T04:42:32;18.20;99.90
8778;DHT22;4425;50.872;4.712;2022-09-13T04:45:03;18.20;99.90
8778;DHT22;4425;50.872;4.712;2022-09-13T04:47:31;18.20;99.90
8778;DHT22;4425;50.872;4.712;2022-09-13T04:50:18;18.20;99.90
8778;DHT22;4425;50.872;4.712;2022-09-13T04:53:01;18.20;99.90
8778;DHT22;4425;50.872;4.712;2022-09-13T04:55:46;18.20;99.90
8778;DHT22;4425;50.872;4.712;2022-09-13T04:58:23;18.10;99.90
8778;DHT22;4425;50.872;4.712;2022-09-13T05:01:01;18.10;99.90
8778;DHT22;4425;50.872;4.712;2022-09-13T05:03:30;18.20;99.90
8778;DHT22;4425;50.872;4.712;2022-09-13T05:06:08;18.20;99.90
8778;DHT22;4425;50.872;4.712;2022-09-13T05:08:51;18.20;99.90
8778;DHT22;4425;50.872;4.712;2022-09-13T05:11:20;18.30;99.90
8778;DHT22;4425;50.872;4.712;2022-09-13T05:13:53;18.20;99.90
8778;DHT22;4425;50.872;4.712;2022-09-13T05:16:22;18.20;99.90
8778;DHT22;4425;50.872;4.712;2022-09-13T05:18:51;18.30;99.90
8778;DHT22;4425;50.872;4.712;2022-09-13T05:21:19;18.30;99.90
8778;DHT22;4425;50.872;4.712;2022-09-13T05:23:48;18.30;99.90
8778;DHT22;4425;50.872;4.712;2022-09-13T05:26:15;18.40;99.90
8778;DHT22;4425;50.872;4.712;2022-09-13T05:28:43;18.30;99.90
8778;DHT22;4425;50.872;4.712;2022-09-13T05:31:16;18.40;99.90
8778;DHT22;4425;50.872;4.712;2022-09-13T05:33:46;18.30;99.90
8778;DHT22;4425;50.872;4.712;2022-09-13T05:36:14;18.20;99.90
8778;DHT22;4425;50.872;4.712;2022-09-13T05:38:45;18.20;99.90
8778;DHT22;4425;50.872;4.712;2022-09-13T05:41:14;18.20;99.90
8778;DHT22;4425;50.872;4.712;2022-09-13T05:43:41;18.20;99.90
8778;DHT22;4425;50.872;4.712;2022-09-13T05:46:11;18.20;99.90
8778;DHT22;4425;50.872;4.712;2022-09-13T05:48:47;18.20;99.90
8778;DHT22;4425;50.872;4.712;2022-09-13T05:51:21;18.30;99.90
8778;DHT22;4425;50.872;4.712;2022-09-13T05:57:26;18.30;99.90
8778;DHT22;4425;50.872;4.712;2022-09-13T05:59:53;18.30;99.90
8778;DHT22;4425;50.872;4.712;2022-09-13T06:02:34;18.30;99.90
8778;DHT22;4425;50.872;4.712;2022-09-13T06:05:22;18.40;99.90
8778;DHT22;4425;50.872;4.712;2022-09-13T06:07:50;18.50;99.90
8778;DHT22;4425;50.872;4.712;2022-09-13T06:10:17;18.50;99.90
8778;DHT22;4425;50.872;4.712;2022-09-13T06:12:49;18.50;99.90
8778;DHT22;4425;50.872;4.712;2022-09-13T06:15:21;18.50;99.90
8778;DHT22;4425;50.872;4.712;2022-09-13T06:17:52;18.60;99.90
8778;DHT22;4425;50.872;4.712;2022-09-13T06:20:23;18.50;99.90
8778;DHT22;4425;50.872;4.712;2022-09-13T06:22:51;18.50;99.90
8778;DHT22;4425;50.872;4.712;2022-09-13T06:25:18;18.50;99.90
8778;DHT22;4425;50.872;4.712;2022-09-13T06:27:50;18.50;99.90
8778;DHT22;4425;50.872;4.712;2022-09-13T06:30:22;18.50;99.90
8778;DHT22;4425;50.872;4.712;2022-09-13T06:32:49;18.50;99.90
8778;DHT22;4425;50.872;4.712;2022-09-13T06:35:34;18.50;99.90
8778;DHT22;4425;50.872;4.712;2022-09-13T06:38:03;18.50;99.90
8778;DHT22;4425;50.872;4.712;2022-09-13T06:40:31;18.50;99.90
8778;DHT22;4425;50.872;4.712;2022-09-13T06:43:05;18.50;99.90
8778;DHT22;4425;50.872;4.712;2022-09-13T06:45:35;18.50;99.90
8778;DHT22;4425;50.872;4.712;2022-09-13T06:48:13;18.60;99.90
8778;DHT22;4425;50.872;4.712;2022-09-13T06:50:43;18.60;99.90
8778;DHT22;4425;50.872;4.712;2022-09-13T06:53:15;18.70;99.90
8778;DHT22;4425;50.872;4.712;2022-09-13T06:55:59;18.70;99.90
8778;DHT22;4425;50.872;4.712;2022-09-13T06:58:37;18.80;99.90
8778;DHT22;4425;50.872;4.712;2022-09-13T07:01:24;18.90;99.90
8778;DHT22;4425;50.872;4.712;2022-09-13T07:03:56;19.10;99.90
8778;DHT22;4425;50.872;4.712;2022-09-13T07:06:32;19.20;99.90
8778;DHT22;4425;50.872;4.712;2022-09-13T07:09:08;19.40;99.90
8778;DHT22;4425;50.872;4.712;2022-09-13T07:11:39;19.70;99.90
8778;DHT22;4425;50.872;4.712;2022-09-13T07:14:12;19.80;99.90
8778;DHT22;4425;50.872;4.712;2022-09-13T07:16:40;19.90;99.90
8778;DHT22;4425;50.872;4.712;2022-09-13T07:19:13;20.00;99.90
8778;DHT22;4425;50.872;4.712;2022-09-13T07:21:45;20.40;99.90
8778;DHT22;4425;50.872;4.712;2022-09-13T07:24:14;21.40;99.90
8778;DHT22;4425;50.872;4.712;2022-09-13T07:26:46;22.30;99.90
8778;DHT22;4425;50.872;4.712;2022-09-13T07:29:22;22.90;99.90
8778;DHT22;4425;50.872;4.712;2022-09-13T07:32:01;23.10;99.90
8778;DHT22;4425;50.872;4.712;2022-09-13T07:34:30;23.50;99.90
8778;DHT22;4425;50.872;4.712;2022-09-13T07:37:10;23.70;99.90
8778;DHT22;4425;50.872;4.712;2022-09-13T07:39:38;24.00;99.90
8778;DHT22;4425;50.872;4.712;2022-09-13T07:42:10;24.00;99.90
8778;DHT22;4425;50.872;4.712;2022-09-13T07:44:39;23.80;99.90
8778;DHT22;4425;50.872;4.712;2022-09-13T07:47:08;23.50;99.90
8778;DHT22;4425;50.872;4.712;2022-09-13T07:49:37;23.30;99.90
8778;DHT22;4425;50.872;4.712;2022-09-13T07:52:07;23.10;99.90
8778;DHT22;4425;50.872;4.712;2022-09-13T07:54:35;22.90;99.90
8778;DHT22;4425;50.872;4.712;2022-09-13T08:00:44;22.50;99.90
8778;DHT22;4425;50.872;4.712;2022-09-13T08:03:14;22.50;99.90
8778;DHT22;4425;50.872;4.712;2022-09-13T08:05:42;22.80;99.90
8778;DHT22;4425;50.872;4.712;2022-09-13T08:08:12;23.30;99.90
8778;DHT22;4425;50.872;4.712;2022-09-13T08:10:39;24.20;99.90
8778;DHT22;4425;50.872;4.712;2022-09-13T08:13:07;25.50;99.90
8778;DHT22;4425;50.872;4.712;2022-09-13T08:15:34;26.90;99.90
8778;DHT22;4425;50.872;4.712;2022-09-13T08:18:04;27.80;99.90
8778;DHT22;4425;50.872;4.712;2022-09-13T08:20:36;28.60;99.90
8778;DHT22;4425;50.872;4.712;2022-09-13T08:23:40;29.00;99.90
8778;DHT22;4425;50.872;4.712;2022-09-13T08:26:12;28.30;99.90
8778;DHT22;4425;50.872;4.712;2022-09-13T08:28:41;27.80;99.90
8778;DHT22;4425;50.872;4.712;2022-09-13T08:31:15;27.30;99.90
8778;DHT22;4425;50.872;4.712;2022-09-13T08:33:47;27.00;99.90
8778;DHT22;4425;50.872;4.712;2022-09-13T08:36:15;26.80;99.90
8778;DHT22;4425;50.872;4.712;2022-09-13T08:38:46;26.40;99.90
8778;DHT22;4425;50.872;4.712;2022-09-13T08:44:19;25.50;99.90
8778;DHT22;4425;50.872;4.712;2022-09-13T08:46:53;25.20;99.90
8778;DHT22;4425;50.872;4.712;2022-09-13T08:49:27;25.00;99.90
8778;DHT22;4425;50.872;4.712;2022-09-13T08:52:15;24.70;99.90
8778;DHT22;4425;50.872;4.712;2022-09-13T08:54:52;24.40;99.90
8778;DHT22;4425;50.872;4.712;2022-09-13T08:57:45;24.20;99.90
8778;DHT22;4425;50.872;4.712;2022-09-13T09:00:20;24.10;99.90
8778;DHT22;4425;50.872;4.712;2022-09-13T09:03:01;24.00;99.90
8778;DHT22;4425;50.872;4.712;2022-09-13T09:05:42;23.90;99.90
8778;DHT22;4425;50.872;4.712;2022-09-13T09:08:18;23.80;99.90
8778;DHT22;4425;50.872;4.712;2022-09-13T09:10:50;23.80;99.90
8778;DHT22;4425;50.872;4.712;2022-09-13T09:13:26;24.00;99.90
8778;DHT22;4425;50.872;4.712;2022-09-13T09:15:58;24.20;99.90
8778;DHT22;4425;50.872;4.712;2022-09-13T09:18:29;24.40;99.90
8778;DHT22;4425;50.872;4.712;2022-09-13T09:21:00;24.60;99.90
8778;DHT22;4425;50.872;4.712;2022-09-13T09:23:31;24.80;99.90
8778;DHT22;4425;50.872;4.712;2022-09-13T09:26:15;24.90;99.90
8778;DHT22;4425;50.872;4.712;2022-09-13T09:28:42;25.00;99.90
8778;DHT22;4425;50.872;4.712;2022-09-13T09:31:14;25.10;99.90
8778;DHT22;4425;50.872;4.712;2022-09-13T09:34:02;24.80;99.90
8778;DHT22;4425;50.872;4.712;2022-09-13T09:36:36;24.80;99.90
8778;DHT22;4425;50.872;4.712;2022-09-13T09:39:08;24.80;99.90
8778;DHT22;4425;50.872;4.712;2022-09-13T09:41:43;25.00;99.90
8778;DHT22;4425;50.872;4.712;2022-09-13T09:44:19;25.00;99.90
8778;DHT22;4425;50.872;4.712;2022-09-13T09:46:49;25.10;99.90
8778;DHT22;4425;50.872;4.712;2022-09-13T09:49:22;25.20;99.90
8778;DHT22;4425;50.872;4.712;2022-09-13T09:52:13;25.10;99.90
8778;DHT22;4425;50.872;4.712;2022-09-13T09:54:42;25.10;99.90
8778;DHT22;4425;50.872;4.712;2022-09-13T09:57:15;24.90;99.90
8778;DHT22;4425;50.872;4.712;2022-09-13T09:59:50;24.70;99.90
8778;DHT22;4425;50.872;4.712;2022-09-13T10:02:22;24.60;99.90
8778;DHT22;4425;50.872;4.712;2022-09-13T10:04:56;24.80;99.90
8778;DHT22;4425;50.872;4.712;2022-09-13T10:07:31;25.00;99.90
8778;DHT22;4425;50.872;4.712;2022-09-13T10:10:04;25.20;99.90
8778;DHT22;4425;50.872;4.712;2022-09-13T10:12:36;25.30;99.90
8778;DHT22;4425;50.872;4.712;2022-09-13T10:15:14;25.30;99.90
8778;DHT22;4425;50.872;4.712;2022-09-13T10:18:04;25.40;99.90
8778;DHT22;4425;50.872;4.712;2022-09-13T10:20:32;25.40;99.90
8778;DHT22;4425;50.872;4.712;2022-09-13T10:23:16;25.50;99.90
8778;DHT22;4425;50.872;4.712;2022-09-13T10:25:45;25.60;99.90
8778;DHT22;4425;50.872;4.712;2022-09-13T10:28:24;25.50;99.90
8778;DHT22;4425;50.872;4.712;2022-09-13T10:30:54;25.60;99.90
8778;DHT22;4425;50.872;4.712;2022-09-13T10:33:27;25.50;99.90
8778;DHT22;4425;50.872;4.712;2022-09-13T10:35:59;25.40;99.90
8778;DHT22;4425;50.872;4.712;2022-09-13T10:38:33;25.50;99.90
8778;DHT22;4425;50.872;4.712;2022-09-13T10:41:06;25.50;99.90
8778;DHT22;4425;50.872;4.712;2022-09-13T10:43:41;25.60;99.90
8778;DHT22;4425;50.872;4.712;2022-09-13T10:46:13;25.70;99.90
8778;DHT22;4425;50.872;4.712;2022-09-13T10:48:49;25.70;99.90
8778;DHT22;4425;50.872;4.712;2022-09-13T10:51:36;25.70;99.90
8778;DHT22;4425;50.872;4.712;2022-09-13T10:54:17;25.50;99.90
8778;DHT22;4425;50.872;4.712;2022-09-13T10:56:51;25.40;99.90
8778;DHT22;4425;50.872;4.712;2022-09-13T10:59:25;25.30;99.90
8778;DHT22;4425;50.872;4.712;2022-09-13T11:02:41;25.40;99.90
8778;DHT22;4425;50.872;4.712;2022-09-13T11:05:19;25.50;99.90
8778;DHT22;4425;50.872;4.712;2022-09-13T11:08:12;25.50;99.90
8778;DHT22;4425;50.872;4.712;2022-09-13T11:11:07;25.60;99.90
8778;DHT22;4425;50.872;4.712;2022-09-13T11:14:02;25.50;99.90
8778;DHT22;4425;50.872;4.712;2022-09-13T11:20:35;25.70;99.90
8778;DHT22;4425;50.872;4.712;2022-09-13T11:27:01;25.70;99.90
8778;DHT22;4425;50.872;4.712;2022-09-13T11:29:53;25.90;99.90
8778;DHT22;4425;50.872;4.712;2022-09-13T11:39:17;26.30;99.90
8778;DHT22;4425;50.872;4.712;2022-09-13T11:42:08;26.40;99.90
8778;DHT22;4425;50.872;4.712;2022-09-13T11:48:26;26.30;99.90
8778;DHT22;4425;50.872;4.712;2022-09-13T11:50:59;26.10;99.90
8778;DHT22;4425;50.872;4.712;2022-09-13T11:53:51;26.10;99.90
8778;DHT22;4425;50.872;4.712;2022-09-13T11:56:29;26.10;99.90
8778;DHT22;4425;50.872;4.712;2022-09-13T11:59:17;26.00;99.90
8778;DHT22;4425;50.872;4.712;2022-09-13T12:01:53;26.00;99.90
8778;DHT22;4425;50.872;4.712;2022-09-13T12:04:29;26.00;99.90
8778;DHT22;4425;50.872;4.712;2022-09-13T12:07:03;26.00;99.90
8778;DHT22;4425;50.872;4.712;2022-09-13T12:09:44;25.80;99.90
8778;DHT22;4425;50.872;4.712;2022-09-13T12:12:22;25.80;99.90
8778;DHT22;4425;50.872;4.712;2022-09-13T12:14:54;25.90;99.90
8778;DHT22;4425;50.872;4.712;2022-09-13T12:17:26;25.80;99.90
8778;DHT22;4425;50.872;4.712;2022-09-13T12:19:59;25.80;99.90
8778;DHT22;4425;50.872;4.712;2022-09-13T12:30:02;26.00;99.90
8778;DHT22;4425;50.872;4.712;2022-09-13T12:32:30;25.90;99.90
8778;DHT22;4425;50.872;4.712;2022-09-13T12:35:18;25.90;99.90
8778;DHT22;4425;50.872;4.712;2022-09-13T12:38:16;25.90;99.90
8778;DHT22;4425;50.872;4.712;2022-09-13T12:41:08;26.00;99.90
8778;DHT22;4425;50.872;4.712;2022-09-13T12:49:35;25.80;99.90
8778;DHT22;4425;50.872;4.712;2022-09-13T12:52:19;25.70;99.90
8778;DHT22;4425;50.872;4.712;2022-09-13T12:58:15;25.60;99.90
8778;DHT22;4425;50.872;4.712;2022-09-13T13:03:49;25.50;99.90
8778;DHT22;4425;50.872;4.712;2022-09-13T13:06:29;25.40;99.90
8778;DHT22;4425;50.872;4.712;2022-09-13T13:09:02;25.40;99.90
8778;DHT22;4425;50.872;4.712;2022-09-13T13:11:43;25.40;99.90
8778;DHT22;4425;50.872;4.712;2022-09-13T13:14:43;25.30;99.90
8778;DHT22;4425;50.872;4.712;2022-09-13T13:20:40;25.00;99.90
8778;DHT22;4425;50.872;4.712;2022-09-13T13:23:23;24.80;99.90
8778;DHT22;4425;50.872;4.712;2022-09-13T13:26:06;24.80;99.90
8778;DHT22;4425;50.872;4.712;2022-09-13T13:29:04;24.70;99.90
8778;DHT22;4425;50.872;4.712;2022-09-13T13:31:39;24.60;99.90
8778;DHT22;4425;50.872;4.712;2022-09-13T13:34:36;24.50;99.90
8778;DHT22;4425;50.872;4.712;2022-09-13T13:40:23;24.50;99.90
8778;DHT22;4425;50.872;4.712;2022-09-13T13:45:56;24.40;99.90
8778;DHT22;4425;50.872;4.712;2022-09-13T13:48:36;24.50;99.90
8778;DHT22;4425;50.872;4.712;2022-09-13T13:51:28;24.50;99.90
8778;DHT22;4425;50.872;4.712;2022-09-13T13:54:03;24.50;99.90
8778;DHT22;4425;50.872;4.712;2022-09-13T13:56:48;24.40;99.90
8778;DHT22;4425;50.872;4.712;2022-09-13T13:59:21;24.30;99.90
8778;DHT22;4425;50.872;4.712;2022-09-13T14:01:53;24.30;99.90
8778;DHT22;4425;50.872;4.712;2022-09-13T14:04:59;24.30;99.90
8778;DHT22;4425;50.872;4.712;2022-09-13T14:07:48;24.30;99.90
8778;DHT22;4425;50.872;4.712;2022-09-13T14:10:23;24.40;99.90
8778;DHT22;4425;50.872;4.712;2022-09-13T14:13:17;24.30;99.90
8778;DHT22;4425;50.872;4.712;2022-09-13T14:15:54;24.20;99.90
8778;DHT22;4425;50.872;4.712;2022-09-13T14:21:33;24.10;99.90
8778;DHT22;4425;50.872;4.712;2022-09-13T14:24:16;24.00;99.90
8778;DHT22;4425;50.872;4.712;2022-09-13T14:26:45;24.00;99.90
8778;DHT22;4425;50.872;4.712;2022-09-13T14:29:22;23.90;99.90
8778;DHT22;4425;50.872;4.712;2022-09-13T14:31:53;23.90;99.90
8778;DHT22;4425;50.872;4.712;2022-09-13T14:34:23;23.90;99.90
8778;DHT22;4425;50.872;4.712;2022-09-13T14:36:52;24.00;99.90
8778;DHT22;4425;50.872;4.712;2022-09-13T14:39:20;24.00;99.90
8778;DHT22;4425;50.872;4.712;2022-09-13T14:41:48;24.10;99.90
8778;DHT22;4425;50.872;4.712;2022-09-13T14:44:26;24.00;99.90
8778;DHT22;4425;50.872;4.712;2022-09-13T14:47:02;23.90;99.90
8778;DHT22;4425;50.872;4.712;2022-09-13T14:49:35;23.70;99.90
8778;DHT22;4425;50.872;4.712;2022-09-13T14:52:08;23.50;99.90
8778;DHT22;4425;50.872;4.712;2022-09-13T14:54:41;23.50;99.90
8778;DHT22;4425;50.872;4.712;2022-09-13T14:57:26;23.40;99.90
8778;DHT22;4425;50.872;4.712;2022-09-13T15:00:03;23.30;99.90
8778;DHT22;4425;50.872;4.712;2022-09-13T15:02:36;23.20;99.90
8778;DHT22;4425;50.872;4.712;2022-09-13T15:05:06;23.30;99.90
8778;DHT22;4425;50.872;4.712;2022-09-13T15:07:37;23.30;99.90
8778;DHT22;4425;50.872;4.712;2022-09-13T15:10:07;23.20;99.90
8778;DHT22;4425;50.872;4.712;2022-09-13T15:12:35;23.10;99.90
8778;DHT22;4425;50.872;4.712;2022-09-13T15:15:30;23.10;99.90
8778;DHT22;4425;50.872;4.712;2022-09-13T15:18:01;23.00;99.90
8778;DHT22;4425;50.872;4.712;2022-09-13T15:20:46;23.00;99.90
8778;DHT22;4425;50.872;4.712;2022-09-13T15:23:27;22.90;99.90
8778;DHT22;4425;50.872;4.712;2022-09-13T15:26:21;22.90;99.90
8778;DHT22;4425;50.872;4.712;2022-09-13T15:29:26;22.90;99.90
8778;DHT22;4425;50.872;4.712;2022-09-13T15:35:36;22.80;99.90
8778;DHT22;4425;50.872;4.712;2022-09-13T15:44:53;22.70;99.90
8778;DHT22;4425;50.872;4.712;2022-09-13T15:47:50;22.70;99.90
8778;DHT22;4425;50.872;4.712;2022-09-13T15:50:25;22.60;99.90
8778;DHT22;4425;50.872;4.712;2022-09-13T15:53:16;22.60;99.90
8778;DHT22;4425;50.872;4.712;2022-09-13T15:56:00;22.60;99.90
8778;DHT22;4425;50.872;4.712;2022-09-13T15:58:34;22.60;99.90
8778;DHT22;4425;50.872;4.712;2022-09-13T16:04:52;22.60;99.90
8778;DHT22;4425;50.872;4.712;2022-09-13T16:07:20;22.40;99.90
8778;DHT22;4425;50.872;4.712;2022-09-13T16:09:53;22.40;99.90
8778;DHT22;4425;50.872;4.712;2022-09-13T16:12:21;22.30;99.90
8778;DHT22;4425;50.872;4.712;2022-09-13T16:14:49;22.30;99.90
8778;DHT22;4425;50.872;4.712;2022-09-13T16:17:21;22.30;99.90
8778;DHT22;4425;50.872;4.712;2022-09-13T16:19:52;22.20;99.90
8778;DHT22;4425;50.872;4.712;2022-09-13T16:22:20;22.20;99.90
8778;DHT22;4425;50.872;4.712;2022-09-13T16:24:53;22.20;99.90
8778;DHT22;4425;50.872;4.712;2022-09-13T16:27:25;22.20;99.90
8778;DHT22;4425;50.872;4.712;2022-09-13T16:29:53;22.10;99.90
8778;DHT22;4425;50.872;4.712;2022-09-13T16:32:21;22.10;99.90
8778;DHT22;4425;50.872;4.712;2022-09-13T16:34:48;22.10;99.90
8778;DHT22;4425;50.872;4.712;2022-09-13T16:37:18;22.10;99.90
8778;DHT22;4425;50.872;4.712;2022-09-13T16:39:47;22.00;99.90
8778;DHT22;4425;50.872;4.712;2022-09-13T16:42:16;21.90;99.90
8778;DHT22;4425;50.872;4.712;2022-09-13T16:44:47;21.90;99.90
8778;DHT22;4425;50.872;4.712;2022-09-13T16:47:18;21.70;99.90
8778;DHT22;4425;50.872;4.712;2022-09-13T16:49:50;21.70;99.90
8778;DHT22;4425;50.872;4.712;2022-09-13T16:52:18;21.70;99.90
8778;DHT22;4425;50.872;4.712;2022-09-13T16:54:57;21.60;99.90
8778;DHT22;4425;50.872;4.712;2022-09-13T16:57:30;21.60;99.90
8778;DHT22;4425;50.872;4.712;2022-09-13T16:59:57;21.60;99.90
8778;DHT22;4425;50.872;4.712;2022-09-13T17:02:25;21.60;99.90
8778;DHT22;4425;50.872;4.712;2022-09-13T17:04:53;21.60;99.90
8778;DHT22;4425;50.872;4.712;2022-09-13T17:07:22;21.50;99.90
8778;DHT22;4425;50.872;4.712;2022-09-13T17:09:49;21.40;99.90
8778;DHT22;4425;50.872;4.712;2022-09-13T17:12:17;21.30;99.90
8778;DHT22;4425;50.872;4.712;2022-09-13T17:14:51;21.30;99.90
8778;DHT22;4425;50.872;4.712;2022-09-13T17:17:27;21.20;99.90
8778;DHT22;4425;50.872;4.712;2022-09-13T17:20:05;21.20;99.90
8778;DHT22;4425;50.872;4.712;2022-09-13T17:22:35;21.10;99.90
8778;DHT22;4425;50.872;4.712;2022-09-13T17:25:04;21.00;99.90
8778;DHT22;4425;50.872;4.712;2022-09-13T17:27:47;21.00;99.90
8778;DHT22;4425;50.872;4.712;2022-09-13T17:30:46;20.90;99.90
8778;DHT22;4425;50.872;4.712;2022-09-13T17:33:16;20.90;99.90
8778;DHT22;4425;50.872;4.712;2022-09-13T17:35:46;20.80;99.90
8778;DHT22;4425;50.872;4.712;2022-09-13T17:38:26;20.80;99.90
8778;DHT22;4425;50.872;4.712;2022-09-13T17:41:19;20.80;99.90
8778;DHT22;4425;50.872;4.712;2022-09-13T17:43:50;20.70;99.90
8778;DHT22;4425;50.872;4.712;2022-09-13T17:46:52;20.80;99.90
8778;DHT22;4425;50.872;4.712;2022-09-13T17:49:45;20.80;99.90
8778;DHT22;4425;50.872;4.712;2022-09-13T17:52:34;20.70;99.90
8778;DHT22;4425;50.872;4.712;2022-09-13T17:55:06;20.70;99.90
8778;DHT22;4425;50.872;4.712;2022-09-13T17:58:00;20.60;99.90
8778;DHT22;4425;50.872;4.712;2022-09-13T18:00:54;20.60;99.90
8778;DHT22;4425;50.872;4.712;2022-09-13T18:03:54;20.50;99.90
8778;DHT22;4425;50.872;4.712;2022-09-13T18:06:29;20.40;99.90
8778;DHT22;4425;50.872;4.712;2022-09-13T18:09:04;20.40;99.90
8778;DHT22;4425;50.872;4.712;2022-09-13T18:11:45;20.40;99.90
8778;DHT22;4425;50.872;4.712;2022-09-13T18:14:19;20.40;99.90
8778;DHT22;4425;50.872;4.712;2022-09-13T18:16:50;20.40;99.90
8778;DHT22;4425;50.872;4.712;2022-09-13T18:19:26;20.40;99.90
8778;DHT22;4425;50.872;4.712;2022-09-13T18:21:59;20.40;99.90